Flight Track Log - Related Links

Times and Time Zones

All times are in EDT time to prevent confusion due to time zone crossing. See the EXS185 flight status page for this flight to view local times or setup timezone preferences in your user account.

Time Position Orientation Groundspeed Altitude Reporting Facility
EDT Latitude Longitude Course Direction KTS MPH feet Rate Location/Type
Mon 02:35:00 AM 52.6170 -1.9376 188° South  Level Estimated
Mon 02:36:00 AM 52.5513 -1.9518 187° South  Level Estimated
Mon 02:37:00 AM 52.4855 -1.9659 187° South  Level Estimated
Mon 02:38:00 AM 52.4198 -1.9799 187° South  Level Estimated
Mon 02:39:00 AM 52.3540 -1.9940 187° South  Level Estimated
Mon 02:40:00 AM 52.2883 -2.0079 187° South  Level Estimated
Mon 02:41:00 AM 52.2225 -2.0219 187° South  Level Estimated
Mon 02:42:00 AM 52.1568 -2.0358 187° South  Level Estimated
Mon 02:43:00 AM 52.0910 -2.0496 187° South  Level Estimated
Mon 02:44:00 AM 52.0252 -2.0634 187° South  Level Estimated
Mon 02:45:00 AM 51.9595 -2.0772 187° South  Level Estimated
Mon 02:46:00 AM 51.8937 -2.0909 187° South  Level Estimated
Mon 02:47:00 AM 51.8280 -2.1046 187° South  Level Estimated
Mon 02:48:00 AM 51.7622 -2.1183 187° South  Level Estimated
Mon 02:49:00 AM 51.6964 -2.1319 187° South  Level Estimated
Mon 02:50:00 AM 51.6307 -2.1454 187° South  Level Estimated
Mon 02:51:00 AM 51.5649 -2.1590 187° South  Level Estimated
Mon 02:52:00 AM 51.4991 -2.1725 187° South  Level Estimated
Mon 02:53:00 AM 51.4333 -2.1859 187° South  Level Estimated
Mon 02:54:00 AM 51.3676 -2.1993 187° South  Level Estimated
Mon 02:55:00 AM 51.3018 -2.2127 187° South  Level Estimated
Mon 02:56:00 AM 51.2355 -2.2261 187° South  Level Estimated
Mon 02:57:00 AM 51.1692 -2.2395 187° South  Level Estimated
Mon 02:58:00 AM 51.1029 -2.2529 187° South  Level Estimated
Mon 02:59:00 AM 51.0366 -2.2662 187° South  Level Estimated
Mon 03:00:00 AM 50.9703 -2.2795 187° South  Level Estimated
Mon 03:01:00 AM 50.9040 -2.2928 187° South  Level Estimated
Mon 03:02:00 AM 50.8377 -2.3060 187° South  Level Estimated
Mon 03:03:00 AM 50.7715 -2.3191 187° South  Level Estimated
Mon 03:04:00 AM 50.7052 -2.3323 187° South  Level Estimated
Mon 03:05:00 AM 50.6389 -2.3454 187° South  Level Estimated
Mon 03:06:00 AM 50.5726 -2.3584 187° South  Level Estimated
Mon 03:07:00 AM 50.5062 -2.3715 187° South  Level Estimated
Mon 03:08:00 AM 50.4399 -2.3845 187° South  Level Estimated
Mon 03:09:00 AM 50.3736 -2.3974 187° South  Level Estimated
Mon 03:10:00 AM 50.3073 -2.4103 187° South  Level Estimated
Mon 03:11:00 AM 50.2410 -2.4232 187° South  Level Estimated
Mon 03:12:00 AM 50.1747 -2.4361 187° South  Level Estimated
Mon 03:13:00 AM 50.1084 -2.4489 187° South  Level Estimated
Mon 03:14:00 AM 50.0421 -2.4616 187° South  Level Estimated
Mon 03:15:00 AM 49.9758 -2.4744 187° South  Level Estimated
Mon 03:16:00 AM 49.9095 -2.4871 187° South  Level Estimated
Mon 03:17:00 AM 49.8431 -2.4998 187° South  Level Estimated
Mon 03:18:00 AM 49.7768 -2.5124 187° South  Level Estimated
Mon 03:19:00 AM 49.7105 -2.5250 187° South  Level Estimated
Mon 03:20:00 AM 49.6442 -2.5376 187° South  Level Estimated
Mon 03:21:00 AM 49.5779 -2.5501 187° South  Level Estimated
Mon 03:22:00 AM 49.4543 -2.5733 187° South  Level Estimated
Mon 03:23:00 AM 49.3880 -2.5858 187° South  Level Estimated
Mon 03:24:00 AM 49.3216 -2.5982 187° South  Level Estimated
Mon 03:25:00 AM 49.2553 -2.6105 187° South  Level Estimated
Mon 03:26:00 AM 49.1890 -2.6229 187° South  Level Estimated
Mon 03:27:00 AM 49.1226 -2.6352 187° South  Level Estimated
Mon 03:28:00 AM 49.0563 -2.6474 187° South  Level Estimated
Mon 03:29:00 AM 48.9900 -2.6597 187° South  Level Estimated
Mon 03:30:00 AM 48.9236 -2.6719 187° South  Level Estimated
Mon 03:31:00 AM 48.8573 -2.6841 187° South  Level Estimated
Mon 03:32:00 AM 48.7910 -2.6962 187° South  Level Estimated
Mon 03:33:00 AM 48.7246 -2.7083 187° South  Level Estimated
Mon 03:34:00 AM 48.6583 -2.7204 187° South  Level Estimated
Mon 03:35:00 AM 48.5919 -2.7324 187° South  Level Estimated
Mon 03:36:00 AM 48.5256 -2.7444 187° South  Level Estimated
Mon 03:37:00 AM 48.4593 -2.7564 187° South  Level Estimated
Mon 03:38:00 AM 48.3929 -2.7684 187° South  Level Estimated
Mon 03:39:00 AM 48.3265 -2.7803 187° South  Level Estimated
Mon 03:40:00 AM 48.2602 -2.7922 187° South  Level Estimated
Mon 03:41:00 AM 48.1939 -2.8040 187° South  Level Estimated
Mon 03:42:00 AM 48.1275 -2.8159 187° South  Level Estimated
Mon 03:43:00 AM 48.0611 -2.8277 187° South  Level Estimated
Mon 03:44:00 AM 47.9948 -2.8394 187° South  Level Estimated
Mon 03:45:00 AM 47.9285 -2.8511 187° South  Level Estimated
Mon 03:46:00 AM 47.8621 -2.8628 187° South  Level Estimated
Mon 03:47:00 AM 47.7957 -2.8745 187° South  Level Estimated
Mon 03:48:00 AM 47.7294 -2.8861 187° South  Level Estimated
Mon 03:49:00 AM 47.6630 -2.8978 187° South  Level Estimated
Mon 03:50:00 AM 47.5966 -2.9093 187° South  Level Estimated
Mon 03:51:00 AM 47.5303 -2.9209 187° South  Level Estimated
Mon 03:52:00 AM 47.4639 -2.9324 187° South  Level Estimated
Mon 03:53:00 AM 47.3976 -2.9439 187° South  Level Estimated
Mon 03:54:00 AM 47.3312 -2.9554 187° South  Level Estimated
Mon 03:55:00 AM 47.2648 -2.9669 187° South  Level Estimated
Mon 03:56:00 AM 47.1985 -2.9783 187° South  Level Estimated
Mon 03:57:00 AM 47.1321 -2.9896 187° South  Level Estimated
Mon 03:58:00 AM 47.0657 -3.0010 187° South  Level Estimated
Mon 03:59:00 AM 46.9994 -3.0123 187° South  Level Estimated
Mon 04:00:00 AM 46.9330 -3.0236 187° South  Level Estimated
Mon 04:01:00 AM 46.8666 -3.0349 187° South  Level Estimated
Mon 04:02:00 AM 46.8003 -3.0461 187° South  Level Estimated
Mon 04:03:00 AM 46.7339 -3.0573 187° South  Level Estimated
Mon 04:04:00 AM 46.6675 -3.0685 187° South  Level Estimated
Mon 04:05:00 AM 46.6011 -3.0797 187° South  Level Estimated
Mon 04:06:00 AM 46.5347 -3.0908 187° South  Level Estimated
Mon 04:07:00 AM 46.4684 -3.1019 187° South  Level Estimated
Mon 04:08:00 AM 46.4020 -3.1130 187° South  Level Estimated
Mon 04:09:00 AM 46.3356 -3.1241 187° South  Level Estimated
Mon 04:10:00 AM 46.2692 -3.1351 187° South  Level Estimated
Mon 04:11:00 AM 46.2028 -3.1461 187° South  Level Estimated
Mon 04:12:00 AM 46.1365 -3.1570 187° South  Level Estimated
Mon 04:13:00 AM 46.0701 -3.1680 187° South  Level Estimated
Mon 04:14:00 AM 46.0037 -3.1789 187° South  Level Estimated
Mon 04:15:00 AM 45.9373 -3.1898 187° South  Level Estimated
Mon 04:16:00 AM 45.8709 -3.2007 187° South  Level Estimated
Mon 04:17:00 AM 45.8045 -3.2115 186° South  Level Estimated
Mon 04:18:00 AM 45.7381 -3.2223 186° South  Level Estimated
Mon 04:19:00 AM 45.6717 -3.2331 186° South  Level Estimated
Mon 04:20:00 AM 45.6053 -3.2439 186° South  Level Estimated
Mon 04:21:00 AM 45.5390 -3.2546 186° South  Level Estimated
Mon 04:22:00 AM 45.4726 -3.2653 186° South  Level Estimated
Mon 04:23:00 AM 45.4062 -3.2760 186° South  Level Estimated
Mon 04:24:00 AM 45.3398 -3.2867 186° South  Level Estimated
Mon 04:25:00 AM 45.2734 -3.2973 186° South  Level Estimated
Mon 04:26:00 AM 45.2070 -3.3079 186° South  Level Estimated
Mon 04:27:00 AM 45.1406 -3.3185 186° South  Level Estimated
Mon 04:28:00 AM 45.0742 -3.3291 186° South  Level Estimated
Mon 04:29:00 AM 45.0078 -3.3396 186° South  Level Estimated
Mon 04:30:00 AM 44.9414 -3.3501 186° South  Level Estimated
Mon 04:31:00 AM 44.8750 -3.3606 186° South  Level Estimated
Mon 04:32:00 AM 44.8086 -3.3711 186° South  Level Estimated
Mon 04:33:00 AM 44.7421 -3.3815 186° South  Level Estimated
Mon 04:34:00 AM 44.6757 -3.3919 186° South  Level Estimated
Mon 04:35:00 AM 44.6093 -3.4023 186° South  Level Estimated
Mon 04:36:00 AM 44.5429 -3.4127 186° South  Level Estimated
Mon 04:37:00 AM 44.4765 -3.4230 186° South  Level Estimated
Mon 04:38:00 AM 44.4101 -3.4334 186° South  Level Estimated
Mon 04:39:00 AM 44.3437 -3.4437 186° South  Level Estimated
Mon 04:40:00 AM 44.2773 -3.4539 186° South  Level Estimated
Mon 04:41:00 AM 44.2109 -3.4642 186° South  Level Estimated
Mon 04:42:00 AM 44.1445 -3.4744 186° South  Level Estimated
Mon 04:43:00 AM 44.0780 -3.4846 186° South  Level Estimated
Mon 04:44:00 AM 44.0116 -3.4948 186° South  Level Estimated
Mon 04:45:00 AM 43.9452 -3.5050 186° South  Level Estimated
Mon 04:46:00 AM 43.8788 -3.5151 186° South  Level Estimated
Mon 04:47:00 AM 43.8124 -3.5252 186° South  Level Estimated
Mon 04:48:00 AM 43.7459 -3.5353 186° South  Level Estimated
Mon 04:49:00 AM 43.6795 -3.5454 186° South  Level Estimated
Mon 04:50:00 AM 43.6131 -3.5554 186° South  Level Estimated
Mon 04:51:00 AM 43.5467 -3.5655 186° South  Level Estimated
Mon 04:52:00 AM 43.4803 -3.5755 186° South  Level Estimated
Mon 04:53:00 AM 43.3565 -3.5941 186° South  Level Estimated
Mon 04:54:00 AM 43.2901 -3.6040 186° South  Level Estimated
Mon 04:55:00 AM 43.2236 -3.6139 186° South  Level Estimated
Mon 04:56:00 AM 43.1572 -3.6238 186° South  Level Estimated

Login

Don't have an account? Register now (free) for customized features, flight alerts, and more!